createdAt,value
2018-02-04T00:02:04.791Z,18.27
2018-02-04T00:04:34.393Z,19.87
2018-02-04T00:07:03.264Z,18.60
2018-02-04T00:09:31.528Z,16.90
2018-02-04T00:11:59.768Z,17.87
2018-02-04T00:14:28.014Z,18.50
2018-02-04T00:16:57.040Z,18.90
2018-02-04T00:19:25.267Z,18.20
2018-02-04T00:21:53.559Z,19.67
2018-02-04T00:24:21.831Z,18.87
2018-02-04T00:26:51.415Z,21.07
2018-02-04T00:29:19.528Z,19.57
2018-02-04T00:31:47.819Z,24.77
2018-02-04T00:34:16.043Z,24.20
2018-02-04T00:36:45.630Z,25.67
2018-02-04T00:39:14.176Z,20.37
2018-02-04T00:41:42.413Z,21.17
2018-02-04T00:44:11.066Z,17.23
2018-02-04T00:46:39.339Z,16.90
2018-02-04T00:49:08.332Z,14.63
2018-02-04T00:51:37.915Z,14.80
2018-02-04T00:54:07.403Z,15.23
2018-02-04T00:56:36.877Z,15.83
2018-02-04T00:59:04.998Z,18.00
2018-02-04T01:01:33.275Z,18.83
2018-02-04T01:04:01.503Z,16.97
2018-02-04T01:06:29.750Z,19.03
2018-02-04T01:08:59.586Z,17.53
2018-02-04T01:11:27.820Z,16.67
2018-02-04T01:13:57.418Z,16.10
2018-02-04T01:16:26.907Z,14.37
2018-02-04T01:18:56.515Z,15.10
2018-02-04T01:21:26.255Z,15.83
2018-02-04T01:23:54.920Z,15.93
2018-02-04T01:26:24.651Z,15.07
2018-02-04T01:28:52.890Z,15.40
2018-02-04T01:31:21.170Z,16.90
2018-02-04T01:33:49.387Z,15.10
2018-02-04T01:36:18.382Z,16.63
2018-02-04T01:38:47.807Z,16.57
2018-02-04T01:41:16.799Z,15.20
2018-02-04T01:43:46.391Z,15.30
2018-02-04T01:46:15.695Z,17.00
2018-02-04T01:48:45.072Z,17.40
2018-02-04T01:51:14.076Z,15.43
2018-02-04T01:53:42.344Z,13.90
2018-02-04T01:56:11.347Z,15.03
2018-02-04T01:58:39.585Z,17.33
2018-02-04T02:01:07.847Z,13.93
2018-02-04T02:03:36.080Z,15.90
2018-02-04T02:06:04.326Z,14.90
2018-02-04T02:08:33.950Z,15.38
2018-02-04T02:11:04.907Z,16.27
2018-02-04T02:13:33.029Z,12.57
2018-02-04T02:16:02.448Z,12.83
2018-02-04T02:18:31.448Z,12.85
2018-02-04T02:20:59.696Z,13.07
2018-02-04T02:23:28.728Z,12.93
2018-02-04T02:25:57.356Z,12.63
2018-02-04T02:28:26.722Z,13.20
2018-02-04T02:30:55.770Z,13.40
2018-02-04T02:33:25.516Z,14.10
2018-02-04T02:35:53.748Z,14.35
2018-02-04T02:38:22.016Z,13.30
2018-02-04T02:40:50.266Z,14.60
2018-02-04T02:43:18.500Z,17.77
2018-02-04T02:45:46.778Z,17.20
2018-02-04T02:48:16.515Z,15.27
2018-02-04T02:50:46.136Z,17.33
2018-02-04T02:53:14.672Z,16.47
2018-02-04T02:55:44.082Z,14.18
2018-02-04T02:58:12.387Z,11.83
2018-02-04T03:00:42.142Z,12.83
2018-02-04T03:03:11.763Z,12.68
2018-02-04T03:05:41.261Z,12.50
2018-02-04T03:08:10.530Z,12.57
2018-02-04T03:10:39.216Z,13.93
2018-02-04T03:13:07.452Z,15.35
2018-02-04T03:15:35.689Z,15.30
2018-02-04T03:18:03.955Z,17.65
2018-02-04T03:20:32.197Z,19.70
2018-02-04T03:23:01.568Z,19.67
2018-02-04T03:25:30.636Z,17.95
2018-02-04T03:28:00.018Z,18.67
2018-02-04T03:30:29.613Z,16.73
2018-02-04T03:32:58.536Z,12.95
2018-02-04T03:35:27.926Z,12.45
2018-02-04T03:37:56.938Z,13.30
2018-02-04T03:40:25.223Z,12.63
2018-02-04T03:42:54.224Z,11.48
2018-02-04T03:45:23.829Z,10.93
2018-02-04T03:47:52.363Z,11.93
2018-02-04T03:50:21.956Z,13.62
2018-02-04T03:52:51.575Z,12.80
2018-02-04T03:55:20.607Z,10.48
2018-02-04T03:57:48.840Z,11.18
2018-02-04T04:00:17.078Z,11.40
2018-02-04T04:02:45.394Z,10.02
2018-02-04T04:05:13.641Z,8.55
2018-02-04T04:07:41.906Z,10.02
2018-02-04T04:10:10.201Z,7.55
2018-02-04T04:12:38.424Z,8.13
2018-02-04T04:15:06.652Z,7.47
2018-02-04T04:17:34.907Z,6.95
2018-02-04T04:20:03.910Z,7.00
2018-02-04T04:22:32.132Z,7.50
2018-02-04T04:25:00.395Z,7.10
2018-02-04T04:27:28.636Z,7.37
2018-02-04T04:29:58.230Z,6.47
2018-02-04T04:32:26.552Z,7.10
2018-02-04T04:34:54.771Z,6.35
2018-02-04T04:37:22.996Z,6.35
2018-02-04T04:39:51.272Z,6.72
2018-02-04T04:42:20.850Z,6.20
2018-02-04T04:44:48.965Z,6.30
2018-02-04T04:47:18.004Z,5.70
2018-02-04T04:49:46.236Z,4.68
2018-02-04T04:52:15.831Z,4.82
2018-02-04T04:54:45.348Z,4.65
2018-02-04T04:57:14.220Z,6.45
2018-02-04T04:59:42.483Z,4.50
2018-02-04T05:02:12.098Z,5.07
2018-02-04T05:04:40.218Z,5.28
2018-02-04T05:07:09.951Z,5.80
2018-02-04T05:09:38.207Z,3.72
2018-02-04T05:12:06.446Z,3.90
2018-02-04T05:14:36.171Z,4.40
2018-02-04T05:17:05.211Z,4.82
2018-02-04T05:19:34.586Z,4.43
2018-02-04T05:22:02.809Z,4.00
2018-02-04T05:24:31.850Z,5.43
2018-02-04T05:27:00.854Z,4.12
2018-02-04T05:29:30.440Z,4.10
2018-02-04T05:32:00.098Z,4.50
2018-02-04T05:34:28.368Z,4.00
2018-02-04T05:36:58.103Z,4.97
2018-02-04T05:39:27.504Z,4.55
2018-02-04T05:41:56.492Z,4.12
2018-02-04T05:44:24.715Z,5.00
2018-02-04T05:46:53.753Z,4.35
2018-02-04T05:49:21.990Z,4.05
2018-02-04T05:51:50.202Z,5.40
2018-02-04T05:54:18.475Z,4.60
2018-02-04T05:56:46.718Z,4.80
2018-02-04T05:59:14.962Z,4.60
2018-02-04T06:01:43.648Z,5.25
2018-02-04T06:04:12.648Z,4.72
2018-02-04T06:06:42.239Z,4.80
2018-02-04T06:09:11.145Z,4.20
2018-02-04T06:11:39.371Z,5.22
2018-02-04T06:14:07.597Z,4.60
2018-02-04T06:16:35.874Z,5.00
2018-02-04T06:19:04.096Z,4.78
2018-02-04T06:21:32.323Z,5.25
2018-02-04T06:24:00.595Z,4.15
2018-02-04T06:26:30.188Z,4.95
2018-02-04T06:28:59.448Z,5.05
2018-02-04T06:31:27.723Z,5.10
2018-02-04T06:33:55.948Z,5.53
2018-02-04T06:36:24.210Z,5.18
2018-02-04T06:38:52.482Z,5.53
2018-02-04T06:41:22.230Z,5.70
2018-02-04T06:43:50.447Z,4.82
2018-02-04T06:46:18.738Z,4.90
2018-02-04T06:48:46.955Z,5.00
2018-02-04T06:51:15.591Z,5.00
2018-02-04T06:53:43.864Z,6.18
2018-02-04T06:56:13.243Z,5.05
2018-02-04T06:58:41.883Z,5.20
2018-02-04T07:01:10.162Z,5.12
2018-02-04T07:03:39.168Z,5.20
2018-02-04T07:06:07.406Z,6.30
2018-02-04T07:08:35.663Z,4.45
2018-02-04T07:11:03.898Z,5.60
2018-02-04T07:13:32.888Z,5.68
2018-02-04T07:16:02.696Z,5.95
2018-02-04T07:18:31.936Z,5.15
2018-02-04T07:21:00.189Z,5.93
2018-02-04T07:23:29.263Z,5.75
2018-02-04T07:25:58.208Z,6.10
2018-02-04T07:28:27.196Z,6.05
2018-02-04T07:30:55.468Z,6.70
2018-02-04T07:33:23.692Z,7.55
2018-02-04T07:35:51.939Z,7.57
2018-02-04T07:38:21.344Z,6.43
2018-02-04T07:40:50.933Z,6.70
2018-02-04T07:43:19.804Z,6.68
2018-02-04T07:45:49.423Z,6.78
2018-02-04T07:48:18.298Z,6.32
2018-02-04T07:50:47.295Z,6.70
2018-02-04T07:53:15.583Z,6.62
2018-02-04T07:55:45.320Z,6.32
2018-02-04T07:58:14.322Z,7.80
2018-02-04T08:00:43.721Z,7.13
2018-02-04T08:03:11.960Z,6.50
2018-02-04T08:05:40.957Z,5.35
2018-02-04T08:08:09.211Z,6.47
2018-02-04T08:10:38.195Z,6.13
2018-02-04T08:13:07.552Z,6.27
2018-02-04T08:15:36.954Z,5.80
2018-02-04T08:18:06.541Z,6.27
2018-02-04T08:20:35.404Z,6.43
2018-02-04T08:23:05.029Z,5.60
2018-02-04T08:25:34.483Z,5.93
2018-02-04T08:28:02.976Z,5.63
2018-02-04T08:30:31.999Z,6.77
2018-02-04T08:33:01.010Z,6.37
2018-02-04T08:35:30.595Z,5.07
2018-02-04T08:37:59.523Z,6.13
2018-02-04T08:40:27.776Z,6.00
2018-02-04T08:42:55.995Z,5.30
2018-02-04T08:45:24.262Z,8.60
2018-02-04T08:47:53.630Z,6.53
2018-02-04T08:50:21.847Z,6.23
2018-02-04T08:52:50.100Z,6.50
2018-02-04T08:55:19.674Z,6.50
2018-02-04T08:57:48.906Z,6.20
2018-02-04T09:00:17.171Z,5.67
2018-02-04T09:02:45.787Z,6.10
2018-02-04T09:05:15.393Z,6.20
2018-02-04T09:07:43.524Z,6.80
2018-02-04T09:10:11.759Z,6.47
2018-02-04T09:12:40.010Z,8.00
2018-02-04T09:15:09.625Z,6.60
2018-02-04T09:17:37.724Z,6.63
2018-02-04T09:20:07.452Z,7.90
2018-02-04T09:22:36.096Z,8.00
2018-02-04T09:25:05.680Z,12.83
2018-02-04T09:27:35.143Z,12.70
2018-02-04T09:30:03.679Z,37.67
2018-02-04T09:32:31.911Z,13.00
2018-02-04T09:35:00.158Z,9.80
2018-02-04T09:37:28.432Z,8.73
2018-02-04T09:39:57.441Z,10.07
2018-02-04T09:42:27.184Z,10.90
2018-02-04T09:44:56.796Z,19.17
2018-02-04T09:47:25.304Z,11.13
2018-02-04T09:49:53.538Z,7.80
2018-02-04T09:52:21.788Z,17.73
2018-02-04T09:54:50.784Z,13.53
2018-02-04T09:57:19.031Z,9.30
2018-02-04T09:59:47.902Z,14.07
2018-02-04T10:02:17.285Z,8.70
2018-02-04T10:04:45.912Z,7.40
2018-02-04T10:07:14.176Z,9.40
2018-02-04T10:09:42.428Z,7.70
2018-02-04T10:12:11.796Z,6.60
2018-02-04T10:14:40.580Z,7.80
2018-02-04T10:17:08.803Z,7.97
2018-02-04T10:19:38.380Z,7.97
2018-02-04T10:22:06.527Z,7.67
2018-02-04T10:24:34.752Z,8.67
2018-02-04T10:27:02.980Z,7.90
2018-02-04T10:29:32.373Z,8.17
2018-02-04T10:32:00.596Z,7.60
2018-02-04T10:34:30.189Z,8.00
2018-02-04T10:36:58.732Z,8.57
2018-02-04T10:39:26.964Z,8.90
2018-02-04T10:41:56.555Z,8.05
2018-02-04T10:44:26.051Z,12.48
2018-02-04T10:46:54.932Z,9.97
2018-02-04T10:49:23.174Z,8.53
2018-02-04T10:52:00.054Z,10.15
2018-02-04T10:54:28.155Z,8.30
2018-02-04T10:56:57.759Z,9.93
2018-02-04T10:59:26.308Z,8.43
2018-02-04T11:01:54.928Z,9.43
2018-02-04T11:04:23.164Z,9.68
2018-02-04T11:06:52.939Z,10.97
2018-02-04T11:09:22.326Z,12.02
2018-02-04T11:11:51.344Z,14.20
2018-02-04T11:14:19.604Z,12.30
2018-02-04T11:16:48.612Z,13.57
2018-02-04T11:19:17.271Z,12.83
2018-02-04T11:21:46.675Z,12.43
2018-02-04T11:24:14.909Z,11.70
2018-02-04T11:26:43.173Z,11.50
2018-02-04T11:29:11.463Z,13.83
2018-02-04T11:31:40.150Z,15.20
2018-02-04T11:34:08.376Z,12.93
2018-02-04T11:36:37.407Z,10.73
2018-02-04T11:39:06.408Z,11.80
2018-02-04T11:41:36.150Z,10.37
2018-02-04T11:44:04.407Z,9.37
2018-02-04T11:46:32.648Z,9.40
2018-02-04T11:49:02.227Z,10.10
2018-02-04T11:51:31.136Z,10.33
2018-02-04T11:53:59.371Z,9.93
2018-02-04T11:56:28.365Z,12.50
2018-02-04T11:58:56.639Z,11.00
2018-02-04T12:01:24.863Z,9.37
2018-02-04T12:03:53.087Z,10.33
2018-02-04T12:06:21.366Z,13.03
2018-02-04T12:08:49.596Z,12.07
2018-02-04T12:11:17.828Z,13.70
2018-02-04T12:13:47.227Z,13.00
2018-02-04T12:16:16.182Z,13.20
2018-02-04T12:18:45.565Z,13.97
2018-02-04T12:21:13.835Z,16.17
2018-02-04T12:23:43.431Z,16.73
2018-02-04T12:26:12.315Z,17.77
2018-02-04T12:28:40.602Z,18.17
2018-02-04T12:31:08.854Z,19.00
2018-02-04T12:33:37.083Z,17.23
2018-02-04T12:36:06.701Z,16.10
2018-02-04T12:38:35.852Z,17.50
2018-02-04T12:41:04.525Z,17.70
2018-02-04T12:43:34.211Z,15.70
2018-02-04T12:46:02.502Z,15.40
2018-02-04T12:48:31.510Z,16.57
2018-02-04T12:51:00.883Z,14.90
2018-02-04T12:53:29.544Z,14.90
2018-02-04T12:55:57.772Z,13.47
2018-02-04T12:58:27.357Z,12.77
2018-02-04T13:00:56.831Z,12.27
2018-02-04T13:03:25.465Z,13.67
2018-02-04T13:05:53.695Z,13.53
2018-02-04T13:08:23.328Z,11.70
2018-02-04T13:10:52.209Z,10.20
2018-02-04T13:13:21.563Z,9.77
2018-02-04T13:15:52.300Z,8.50
2018-02-04T13:18:20.926Z,9.50
2018-02-04T13:20:49.186Z,7.93
2018-02-04T13:23:18.200Z,8.17
2018-02-04T13:25:46.420Z,7.60
2018-02-04T13:28:14.661Z,7.30
2018-02-04T13:30:44.285Z,6.40
2018-02-04T13:33:12.808Z,8.17
2018-02-04T13:35:41.038Z,6.60
2018-02-04T13:38:09.310Z,6.83
2018-02-04T13:40:37.924Z,6.50
2018-02-04T13:43:07.293Z,6.20
2018-02-04T13:45:35.542Z,6.07
2018-02-04T13:48:04.163Z,5.40
2018-02-04T13:50:32.380Z,5.40
2018-02-04T13:53:00.644Z,5.77
2018-02-04T13:55:30.228Z,5.20
2018-02-04T13:57:58.738Z,4.73
2018-02-04T14:00:26.991Z,5.00
2018-02-04T14:02:55.984Z,5.50
2018-02-04T14:05:24.196Z,5.30
2018-02-04T14:07:53.809Z,5.10
2018-02-04T14:10:23.260Z,6.03
2018-02-04T14:12:52.496Z,6.40
2018-02-04T14:15:20.752Z,5.93
2018-02-04T14:17:48.976Z,4.90
2018-02-04T14:20:17.211Z,5.37
2018-02-04T14:22:46.821Z,5.27
2018-02-04T14:25:15.321Z,4.63
2018-02-04T14:27:43.545Z,4.97
2018-02-04T14:30:11.803Z,5.80
2018-02-04T14:32:40.057Z,4.20
2018-02-04T14:35:08.262Z,4.80
2018-02-04T14:37:36.527Z,5.90
2018-02-04T14:40:06.095Z,6.87
2018-02-04T14:42:34.983Z,4.73
2018-02-04T14:45:04.011Z,4.67
2018-02-04T14:47:32.224Z,5.20
2018-02-04T14:50:00.924Z,5.93
2018-02-04T14:52:30.256Z,5.90
2018-02-04T14:54:59.862Z,6.20
2018-02-04T14:57:28.761Z,5.70
2018-02-04T14:59:56.980Z,6.27
2018-02-04T15:02:25.231Z,5.13
2018-02-04T15:04:54.807Z,5.37
2018-02-04T15:07:23.324Z,6.57
2018-02-04T15:09:51.590Z,5.93
2018-02-04T15:12:21.174Z,8.10
2018-02-04T15:14:51.427Z,8.20
2018-02-04T15:17:20.660Z,7.63
2018-02-04T15:19:50.273Z,8.10
2018-02-04T15:22:18.425Z,7.60
2018-02-04T15:24:46.663Z,8.20
2018-02-04T15:27:16.286Z,8.80
2018-02-04T15:29:46.036Z,7.57
2018-02-04T15:32:15.615Z,8.77
2018-02-04T15:34:44.170Z,8.67
2018-02-04T15:37:12.829Z,7.60
2018-02-04T15:39:42.592Z,7.20
2018-02-04T15:42:14.899Z,7.40
2018-02-04T15:44:43.158Z,8.00
2018-02-04T15:47:13.472Z,8.97
2018-02-04T15:49:41.746Z,9.37
2018-02-04T15:52:10.048Z,8.53
2018-02-04T15:54:40.296Z,9.37
2018-02-04T15:57:09.652Z,9.30
2018-02-04T15:59:37.871Z,8.77
2018-02-04T16:02:06.534Z,8.07
2018-02-04T16:04:35.532Z,7.93
2018-02-04T16:07:04.627Z,8.23
2018-02-04T16:09:33.656Z,11.03
2018-02-04T16:12:03.301Z,8.83
2018-02-04T16:14:32.766Z,9.53
2018-02-04T16:17:02.265Z,9.40
2018-02-04T16:19:30.389Z,10.90
2018-02-04T16:21:58.655Z,9.30
2018-02-04T16:24:26.884Z,11.60
2018-02-04T16:26:55.121Z,10.90
2018-02-04T16:29:24.735Z,10.30
2018-02-04T16:31:54.207Z,11.00
2018-02-04T16:34:23.680Z,9.90
2018-02-04T16:36:53.175Z,11.07
2018-02-04T16:39:22.635Z,10.00
2018-02-04T16:41:51.158Z,10.13
2018-02-04T16:44:20.839Z,11.63
2018-02-04T16:46:49.408Z,10.53
2018-02-04T16:49:17.713Z,10.70
2018-02-04T16:51:45.975Z,11.30
2018-02-04T16:54:14.980Z,11.63
2018-02-04T16:56:43.988Z,13.03
2018-02-04T16:59:12.286Z,11.80
2018-02-04T17:01:40.533Z,13.33
2018-02-04T17:04:08.759Z,10.93
2018-02-04T17:06:37.032Z,12.57
2018-02-04T17:09:06.474Z,11.97
2018-02-04T17:11:34.794Z,10.85
2018-02-04T17:14:03.066Z,11.30
2018-02-04T17:16:31.290Z,12.30
2018-02-04T17:18:59.924Z,13.95
2018-02-04T17:21:30.512Z,12.90
2018-02-04T17:23:59.132Z,10.87
2018-02-04T17:26:28.174Z,12.10
2018-02-04T17:28:57.200Z,10.77
2018-02-04T17:31:25.456Z,10.70
2018-02-04T17:33:53.712Z,10.53
2018-02-04T17:36:21.984Z,11.12
2018-02-04T17:38:50.228Z,10.40
2018-02-04T17:41:18.460Z,10.27
2018-02-04T17:43:47.897Z,10.63
2018-02-04T17:46:17.054Z,9.80
2018-02-04T17:48:45.274Z,11.07
2018-02-04T17:51:15.500Z,10.30
2018-02-04T17:53:44.508Z,11.27
2018-02-04T17:56:12.817Z,11.37
2018-02-04T17:58:42.409Z,10.40
2018-02-04T18:01:11.698Z,12.50
2018-02-04T18:03:39.943Z,11.80
2018-02-04T18:06:08.954Z,12.80
2018-02-04T18:08:37.965Z,13.53
2018-02-04T18:11:06.304Z,13.53
2018-02-04T18:13:35.894Z,13.93
2018-02-04T18:16:04.781Z,14.33
2018-02-04T18:18:34.879Z,13.30
2018-02-04T18:21:03.560Z,13.70
2018-02-04T18:23:31.792Z,14.50
2018-02-04T18:26:00.797Z,14.63
2018-02-04T18:28:30.582Z,13.63
2018-02-04T18:31:00.104Z,13.53
2018-02-04T18:33:31.731Z,14.40
2018-02-04T18:36:00.620Z,13.00
2018-02-04T18:38:28.873Z,15.25
2018-02-04T18:40:58.550Z,15.40
2018-02-04T18:43:27.545Z,14.57
2018-02-04T18:45:58.693Z,15.87
2018-02-04T18:48:27.722Z,15.85
2018-02-04T18:50:56.724Z,16.85
2018-02-04T18:53:26.538Z,16.23
2018-02-04T18:55:55.268Z,16.03
2018-02-04T18:58:23.888Z,17.73
2018-02-04T19:00:53.542Z,15.30
2018-02-04T19:03:23.343Z,14.63
2018-02-04T19:05:52.421Z,15.87
2018-02-04T19:08:20.710Z,15.20
2018-02-04T19:10:51.064Z,17.83
2018-02-04T19:13:20.023Z,16.60
2018-02-04T19:15:48.700Z,17.23
2018-02-04T19:18:16.936Z,17.15
2018-02-04T19:20:45.290Z,14.93
2018-02-04T19:23:13.631Z,18.02
2018-02-04T19:25:42.637Z,17.87
2018-02-04T19:28:12.267Z,16.40
2018-02-04T19:30:41.902Z,20.10
2018-02-04T19:33:10.955Z,17.40
2018-02-04T19:35:39.262Z,18.53
2018-02-04T19:38:07.470Z,18.10
2018-02-04T19:40:37.217Z,19.98
2018-02-04T19:43:06.842Z,20.00
2018-02-04T19:45:35.348Z,18.27
2018-02-04T19:48:04.399Z,18.33
2018-02-04T19:50:32.656Z,18.65
2018-02-04T19:53:00.930Z,20.17
2018-02-04T19:55:29.924Z,19.98
2018-02-04T19:57:58.192Z,19.70
2018-02-04T20:00:27.210Z,18.83
2018-02-04T20:02:56.799Z,20.15
2018-02-04T20:05:25.000Z,20.02
2018-02-04T20:07:53.274Z,19.90
2018-02-04T20:10:22.282Z,21.37
2018-02-04T20:12:50.591Z,20.52
2018-02-04T20:15:18.845Z,21.30
2018-02-04T20:17:48.473Z,22.35
2018-02-04T20:20:18.029Z,20.23
2018-02-04T20:22:47.306Z,20.33
2018-02-04T20:25:15.554Z,19.90
2018-02-04T20:27:43.828Z,20.58
2018-02-04T20:30:12.068Z,21.08
2018-02-04T20:32:53.199Z,20.95
2018-02-04T20:35:22.595Z,21.50
2018-02-04T20:37:51.972Z,22.87
2018-02-04T20:40:20.255Z,21.55
2018-02-04T20:42:48.488Z,23.48
2018-02-04T20:45:16.720Z,23.67
2018-02-04T20:47:48.151Z,21.48
2018-02-04T20:50:16.258Z,22.70
2018-02-04T20:52:45.922Z,21.10
2018-02-04T20:55:14.477Z,20.80
2018-02-04T20:57:44.103Z,21.50
2018-02-04T21:00:13.583Z,23.10
2018-02-04T21:02:43.103Z,19.25
2018-02-04T21:05:11.210Z,21.58
2018-02-04T21:07:39.886Z,20.95
2018-02-04T21:10:09.266Z,22.15
2018-02-04T21:12:37.564Z,20.77
2018-02-04T21:15:07.188Z,21.37
2018-02-04T21:17:35.751Z,21.30
2018-02-04T21:20:03.971Z,21.23
2018-02-04T21:22:32.239Z,22.15
2018-02-04T21:25:01.909Z,21.60
2018-02-04T21:27:30.799Z,21.00
2018-02-04T21:30:01.354Z,22.75
2018-02-04T21:32:30.243Z,24.10
2018-02-04T21:34:59.253Z,23.25
2018-02-04T21:37:27.840Z,22.23
2018-02-04T21:39:56.451Z,22.33
2018-02-04T21:42:24.692Z,20.48
2018-02-04T21:44:54.377Z,20.20
2018-02-04T21:47:23.827Z,20.90
2018-02-04T21:49:53.315Z,23.62
2018-02-04T21:52:21.463Z,22.80
2018-02-04T21:54:51.670Z,22.65
2018-02-04T21:57:19.908Z,22.60
2018-02-04T21:59:48.584Z,22.35
2018-02-04T22:02:18.172Z,22.83
2018-02-04T22:04:46.284Z,24.45
2018-02-04T22:07:14.564Z,23.15
2018-02-04T22:09:44.165Z,20.45
2018-02-04T22:12:13.635Z,23.55
2018-02-04T22:14:42.938Z,22.40
2018-02-04T22:17:12.527Z,25.02
2018-02-04T22:19:40.640Z,22.90
2018-02-04T22:22:10.412Z,24.52
2018-02-04T22:24:40.055Z,23.02
2018-02-04T22:27:08.507Z,24.00
2018-02-04T22:29:36.783Z,23.77
2018-02-04T22:32:05.016Z,22.25
2018-02-04T22:34:33.266Z,22.62
2018-02-04T22:37:02.297Z,23.00
2018-02-04T22:39:31.297Z,22.62
2018-02-04T22:42:00.291Z,23.08
2018-02-04T22:44:28.884Z,22.65
2018-02-04T22:46:58.262Z,22.55
2018-02-04T22:49:27.865Z,23.23
2018-02-04T22:51:56.420Z,22.13
2018-02-04T22:54:24.651Z,23.27
2018-02-04T22:56:54.234Z,22.98
2018-02-04T22:59:22.388Z,22.25
2018-02-04T23:01:51.406Z,23.35
2018-02-04T23:04:20.407Z,21.42
2018-02-04T23:06:48.702Z,21.83
2018-02-04T23:09:16.933Z,22.87
2018-02-04T23:11:45.165Z,21.70
2018-02-04T23:14:13.443Z,23.08
2018-02-04T23:16:41.682Z,22.27
2018-02-04T23:19:11.069Z,22.30
2018-02-04T23:21:40.664Z,22.27
2018-02-04T23:24:10.256Z,23.80
2018-02-04T23:26:38.371Z,20.60
2018-02-04T23:29:08.192Z,21.98
2018-02-04T23:31:36.442Z,22.70
2018-02-04T23:34:04.676Z,23.30
2018-02-04T23:36:32.935Z,23.17
2018-02-04T23:39:02.541Z,22.33
2018-02-04T23:41:31.049Z,22.27
2018-02-04T23:44:00.449Z,22.10
2018-02-04T23:46:28.680Z,23.52
2018-02-04T23:48:58.415Z,24.35
2018-02-04T23:51:27.076Z,22.20
2018-02-04T23:53:56.444Z,22.60
2018-02-04T23:56:26.027Z,25.55
2018-02-04T23:58:55.004Z,21.80
